Terminal Aerodrome Forecast
Issued by NWS

Home | Current Version | Previous Version | Text Only | Print | Product List | Glossary On
Versions: 1 2 3 4 5 6 7 8 9 10 11 12 13 14
000
FTUS45 KTFX 252012 AAA
TAFCTB
TAF AMD
KCTB 252012Z 2520/2618 14011KT P6SM SCT090 BKN150
     FM260000 29006KT P6SM VCSH SCT060 BKN090
     FM260500 32006KT P6SM VCSH SCT045 BKN060 PROB30 2607/2612 -SHRA
      BKN045
     FM261200 30007KT P6SM -SHRA BKN045=

USA.gov is the U.S. government's official web portal to all federal, state and local government web resources and services.